Time;durP1;ratioP1;P1;durP2;ratioP2;P2;SDS_P1;SDS_P2;PMS_P1;PMS_P2;Temp;Humidity;BMP_temperature;BMP_pressure;BME280_temperature;BME280_humidity;BME280_pressure;Samples;Min_cycle;Max_cycle;Signal;HPM_P1;HPM_P2
2023/12/25 00:00:24;;;;;;;47.97;9.88;;;13.00;99.90;;;13.28;100.00;100373.09;4911790;29;20108;-69
2023/12/25 00:02:53;;;;;;;54.00;10.48;;;13.00;99.90;;;13.23;100.00;100362.59;4897298;29;20052;-69
2023/12/25 00:05:22;;;;;;;53.73;11.27;;;13.00;99.90;;;13.21;100.00;100382.13;4897300;29;20049;-69
2023/12/25 00:07:50;;;;;;;47.30;10.35;;;13.00;99.90;;;13.26;100.00;100358.97;4896757;29;20293;-69
2023/12/25 00:10:19;;;;;;;38.28;9.23;;;13.00;99.90;;;13.15;100.00;100335.34;4897217;29;20124;-69
2023/12/25 00:12:48;;;;;;;41.63;9.57;;;13.00;99.90;;;13.22;100.00;100362.63;4897484;29;20494;-69
2023/12/25 00:15:16;;;;;;;49.30;9.60;;;13.00;99.90;;;13.33;100.00;100380.06;4896837;29;20053;-69
2023/12/25 00:17:44;;;;;;;46.17;10.07;;;13.00;99.90;;;13.25;100.00;100363.44;4897538;29;20044;-69
2023/12/25 00:20:18;;;;;;;43.85;10.13;;;13.00;99.90;;;13.21;100.00;100359.09;4911690;29;20084;-70
2023/12/25 00:22:46;;;;;;;48.00;10.80;;;13.00;99.90;;;13.33;100.00;100376.53;4897309;29;20056;-70
2023/12/25 00:25:15;;;;;;;41.65;9.32;;;13.10;99.90;;;13.34;100.00;100365.84;4897146;29;20124;-69
2023/12/25 00:27:43;;;;;;;49.08;10.18;;;13.10;99.90;;;13.28;100.00;100381.06;4896915;29;20111;-69
2023/12/25 00:30:13;;;;;;;48.05;9.68;;;13.00;99.90;;;13.36;100.00;100397.69;4896808;29;20507;-70
2023/12/25 00:32:41;;;;;;;50.03;10.07;;;13.10;99.90;;;13.32;100.00;100401.31;4896741;29;20132;-70
2023/12/25 00:35:10;;;;;;;49.03;10.32;;;13.10;99.90;;;13.34;100.00;100389.75;4899680;29;20131;-69
2023/12/25 00:37:39;;;;;;;44.30;9.85;;;13.10;99.90;;;13.24;100.00;100360.81;4915093;29;20057;-69
2023/12/25 00:40:09;;;;;;;47.13;9.93;;;13.00;99.90;;;13.24;100.00;100384.72;4899253;29;20056;-69
2023/12/25 00:42:37;;;;;;;50.72;10.82;;;13.00;99.90;;;13.24;100.00;100382.91;4899625;29;20293;-69
2023/12/25 00:45:06;;;;;;;56.38;11.38;;;13.00;99.90;;;13.24;100.00;100369.63;4898821;29;20451;-70
2023/12/25 00:47:35;;;;;;;49.25;11.15;;;13.00;99.90;;;13.28;100.00;100375.75;4900466;29;20096;-69
2023/12/25 00:50:04;;;;;;;46.92;9.88;;;13.00;99.90;;;13.22;100.00;100381.22;4900058;29;20048;-69
2023/12/25 00:52:32;;;;;;;57.70;10.95;;;13.00;99.90;;;13.28;100.00;100387.25;4900551;29;20037;-69
2023/12/25 00:55:02;;;;;;;49.70;10.55;;;13.00;99.90;;;13.39;100.00;100394.97;4900282;29;20045;-70
2023/12/25 00:57:30;;;;;;;46.30;10.57;;;13.10;99.90;;;13.35;100.00;100391.53;4900066;29;20048;-69
2023/12/25 00:59:59;;;;;;;60.50;9.93;;;13.10;99.90;;;13.36;100.00;100389.72;4914657;29;20056;-69
2023/12/25 01:02:28;;;;;;;53.42;9.07;;;13.10;99.90;;;13.37;100.00;100399.44;4899811;29;20052;-69
2023/12/25 01:04:56;;;;;;;47.42;9.70;;;13.10;99.90;;;13.34;100.00;100395.06;4899870;29;20052;-69
2023/12/25 01:07:25;;;;;;;48.65;9.73;;;13.10;99.90;;;13.32;100.00;100380.94;4898904;29;20056;-70
2023/12/25 01:09:53;;;;;;;44.20;9.45;;;13.10;99.90;;;13.32;100.00;100394.25;4899846;29;20060;-69
2023/12/25 01:12:23;;;;;;;42.13;9.68;;;13.10;99.90;;;13.28;100.00;100376.63;4899614;29;20096;-69
2023/12/25 01:14:51;;;;;;;48.90;9.40;;;13.10;99.90;;;13.23;100.00;100353.75;4899632;29;20112;-69
2023/12/25 01:17:21;;;;;;;45.38;9.80;;;13.00;99.90;;;13.18;100.00;100367.13;4899658;29;20116;-70
2023/12/25 01:19:49;;;;;;;41.63;8.88;;;13.00;99.90;;;13.31;100.00;100387.19;4929818;29;20049;-69
2023/12/25 01:22:19;;;;;;;45.20;10.07;;;13.10;99.90;;;13.30;100.00;100384.53;4899432;29;20119;-69
2023/12/25 01:24:47;;;;;;;39.53;8.90;;;13.00;99.90;;;13.31;100.00;100386.31;4899585;29;20131;-70
2023/12/25 01:27:15;;;;;;;55.75;9.70;;;13.10;99.90;;;13.27;100.00;100380.19;4899612;29;20073;-71
2023/12/25 01:29:45;;;;;;;49.53;9.77;;;13.00;99.90;;;13.29;100.00;100391.66;4899698;29;20045;-69
2023/12/25 01:32:13;;;;;;;42.05;9.82;;;13.00;99.90;;;13.29;100.00;100389.00;4929822;29;20044;-70
2023/12/25 01:34:42;;;;;;;42.50;10.15;;;13.00;99.90;;;13.24;100.00;100398.00;4897888;29;20486;-69
2023/12/25 01:37:11;;;;;;;60.10;10.57;;;13.00;99.90;;;13.21;100.00;100404.25;4899173;29;20135;-69
2023/12/25 01:39:39;;;;;;;38.80;9.23;;;13.00;99.90;;;13.31;100.00;100410.22;4899598;29;20502;-70
2023/12/25 01:42:07;;;;;;;53.03;10.10;;;13.00;99.90;;;13.39;100.00;100406.44;4899080;29;20051;-70
2023/12/25 01:44:36;;;;;;;53.45;9.75;;;13.10;99.90;;;13.37;100.00;100407.41;4913267;29;20044;-69
2023/12/25 01:47:06;;;;;;;39.55;9.05;;;13.10;99.90;;;13.40;100.00;100397.59;4899107;29;20048;-69
2023/12/25 01:49:34;;;;;;;43.60;9.38;;;13.10;99.90;;;13.39;100.00;100403.78;4898959;29;20414;-69
2023/12/25 01:52:03;;;;;;;35.92;8.98;;;13.20;99.90;;;13.46;100.00;100413.41;4899106;29;20494;-70
2023/12/25 01:54:32;;;;;;;40.80;9.55;;;13.20;99.90;;;13.33;100.00;100408.41;4897882;29;20526;-69
2023/12/25 01:57:01;;;;;;;50.20;10.60;;;13.10;99.90;;;13.32;100.00;100414.59;4898272;29;20088;-70
2023/12/25 01:59:30;;;;;;;46.55;10.13;;;13.10;99.90;;;13.31;100.00;100421.72;4929012;29;20052;-69
2023/12/25 02:01:59;;;;;;;43.85;9.90;;;13.10;99.90;;;13.11;100.00;100408.00;4913216;29;20064;-69
2023/12/25 02:04:29;;;;;;;44.95;9.57;;;13.00;99.90;;;13.18;100.00;100406.09;4898128;29;20049;-69
2023/12/25 02:06:58;;;;;;;49.40;8.87;;;13.00;99.90;;;13.19;100.00;100397.22;4897762;29;20111;-69
2023/12/25 02:09:27;;;;;;;44.03;9.60;;;13.00;99.90;;;13.21;100.00;100435.22;4897025;29;20067;-70
2023/12/25 02:11:56;;;;;;;43.15;9.85;;;13.00;99.90;;;13.24;100.00;100430.72;4897223;29;20077;-70
2023/12/25 02:14:24;;;;;;;46.42;10.13;;;13.00;99.90;;;13.23;100.00;100423.69;4913274;29;20091;-70
2023/12/25 02:16:53;;;;;;;51.83;10.85;;;13.00;99.90;;;13.17;100.00;100422.91;4898660;29;20459;-70
2023/12/25 02:19:32;;;;;;;46.15;10.07;;;13.00;99.90;;;13.28;100.00;100428.84;4896929;29;20104;-70
2023/12/25 02:22:01;;;;;;;47.45;8.98;;;13.00;99.90;;;13.23;100.00;100421.00;4896772;29;20052;-70
2023/12/25 02:24:32;;;;;;;46.38;9.60;;;13.00;99.90;;;13.27;100.00;100435.97;4896938;29;20383;-70
2023/12/25 02:27:02;;;;;;;51.28;9.55;;;13.00;99.90;;;13.28;100.00;100427.09;4897633;29;20052;-69
2023/12/25 02:29:31;;;;;;;47.15;9.95;;;13.00;99.90;;;13.34;100.00;100452.63;4912846;29;20049;-70
2023/12/25 02:31:59;;;;;;;38.60;9.50;;;13.10;99.90;;;13.28;100.00;100439.47;4896927;29;20048;-71
2023/12/25 02:34:28;;;;;;;41.80;9.70;;;13.00;99.90;;;13.26;100.00;100433.31;4896520;29;20057;-70
2023/12/25 02:36:56;;;;;;;43.78;9.35;;;13.00;99.90;;;13.26;100.00;100439.53;4896687;29;20482;-70
2023/12/25 02:39:24;;;;;;;42.63;9.35;;;13.00;99.90;;;13.32;100.00;100434.06;4896989;29;20044;-70
2023/12/25 02:41:53;;;;;;;47.35;9.60;;;13.10;99.90;;;13.34;100.00;100437.56;4896685;29;20049;-71
2023/12/25 02:44:23;;;;;;;53.40;10.50;;;13.10;99.90;;;13.40;100.00;100445.41;4911404;29;20061;-70
2023/12/25 02:46:51;;;;;;;46.47;9.20;;;13.10;99.90;;;13.30;100.00;100443.88;4896751;29;20487;-71
2023/12/25 02:49:19;;;;;;;41.28;10.30;;;13.10;99.90;;;13.35;100.00;100452.63;4897893;29;20127;-70
2023/12/25 02:51:48;;;;;;;51.47;8.70;;;13.10;99.90;;;13.46;100.00;100452.38;4897914;29;20402;-70
2023/12/25 02:54:17;;;;;;;47.15;9.18;;;13.20;99.90;;;13.36;100.00;100453.47;4896422;29;20101;-70
2023/12/25 02:56:45;;;;;;;43.40;9.15;;;13.20;99.90;;;13.31;100.00;100464.22;4910072;29;20124;-71
2023/12/25 02:59:13;;;;;;;48.25;9.55;;;13.10;99.90;;;13.44;100.00;100472.78;4910712;29;20420;-70
2023/12/25 03:01:43;;;;;;;39.25;9.30;;;13.20;99.90;;;13.52;100.00;100471.72;4896818;29;20103;-69
2023/12/25 03:04:11;;;;;;;44.03;10.57;;;13.30;99.90;;;13.42;100.00;100480.78;4896280;29;20055;-70
2023/12/25 03:06:40;;;;;;;43.00;8.85;;;13.20;99.90;;;13.32;100.00;100460.63;4896072;29;20041;-68
2023/12/25 03:09:08;;;;;;;43.55;8.73;;;13.10;99.90;;;13.39;100.00;100490.63;4896339;29;20056;-67
2023/12/25 03:11:36;;;;;;;34.78;9.32;;;13.10;99.90;;;13.46;100.00;100481.59;4896247;29;20080;-67
2023/12/25 03:14:05;;;;;;;41.35;9.40;;;13.20;99.90;;;13.48;100.00;100477.13;4896114;29;20047;-68
2023/12/25 03:16:33;;;;;;;46.60;9.65;;;13.20;99.90;;;13.46;100.00;100471.84;4896841;29;20071;-67
2023/12/25 03:19:03;;;;;;;39.42;9.35;;;13.20;99.90;;;13.40;100.00;100487.91;4895895;29;20108;-67
2023/12/25 03:21:32;;;;;;;41.13;8.93;;;13.20;99.90;;;13.43;100.00;100479.00;4910664;29;20065;-68
2023/12/25 03:24:00;;;;;;;42.25;9.05;;;13.20;99.90;;;13.47;100.00;100476.22;4896851;29;20494;-67
2023/12/25 03:26:29;;;;;;;39.67;9.88;;;13.20;99.90;;;13.44;100.00;100480.75;4897075;29;20048;-67
2023/12/25 03:28:57;;;;;;;38.13;9.02;;;13.20;99.90;;;13.48;100.00;100493.06;4897237;29;20052;-68
2023/12/25 03:31:26;;;;;;;48.92;10.52;;;13.20;99.90;;;13.54;100.00;100485.84;4896463;29;20052;-67
2023/12/25 03:33:54;;;;;;;37.95;8.93;;;13.30;99.90;;;13.62;100.00;100490.09;4897318;29;20104;-68
2023/12/25 03:36:24;;;;;;;41.40;8.52;;;13.40;99.90;;;13.56;100.00;100488.44;4895804;29;20073;-67
2023/12/25 03:38:52;;;;;;;39.03;8.73;;;13.30;99.90;;;13.48;100.00;100485.97;4895736;29;20506;-67
2023/12/25 03:41:21;;;;;;;45.92;8.85;;;13.30;99.90;;;13.50;100.00;100491.25;4911426;29;20136;-68
2023/12/25 03:43:49;;;;;;;38.22;9.63;;;13.30;99.90;;;13.66;100.00;100475.81;4896063;29;20060;-70
2023/12/25 03:46:18;;;;;;;44.65;10.18;;;13.30;99.90;;;13.64;100.00;100482.97;4896731;29;20040;-69
2023/12/25 03:48:46;;;;;;;50.80;9.80;;;13.40;99.90;;;13.74;100.00;100477.41;4910900;29;20513;-70
2023/12/25 03:51:16;;;;;;;43.10;10.05;;;13.50;99.90;;;13.72;100.00;100473.91;4895964;29;20622;-70
2023/12/25 03:53:45;;;;;;;35.20;7.75;;;13.50;99.90;;;13.74;100.00;100466.78;4895907;29;20120;-70
2023/12/25 03:56:17;;;;;;;40.78;8.57;;;13.50;99.90;;;13.73;100.00;100466.78;4897575;29;20085;-69
2023/12/25 03:58:45;;;;;;;38.58;8.73;;;13.50;99.90;;;13.34;100.00;100413.66;4896123;29;20049;-69
2023/12/25 04:01:14;;;;;;;30.27;8.00;;;13.40;99.90;;;13.64;100.00;100461.69;4895251;29;20040;-70
2023/12/25 04:03:42;;;;;;;32.58;7.60;;;13.40;99.90;;;13.53;100.00;100457.50;4895723;29;20072;-70
2023/12/25 04:06:10;;;;;;;35.28;8.50;;;13.40;99.90;;;13.60;100.00;100471.53;4894537;29;20060;-70
2023/12/25 04:08:39;;;;;;;39.08;8.50;;;13.30;99.90;;;13.48;100.00;100459.41;4899732;29;20071;-70
2023/12/25 04:11:20;;;;;;;40.80;8.25;;;13.30;99.90;;;13.51;100.00;100461.97;4914671;29;20402;-69
2023/12/25 04:13:53;;;;;;;38.30;8.40;;;13.30;99.90;;;13.50;100.00;100468.22;4901319;29;20041;-69
2023/12/25 04:16:22;;;;;;;46.72;8.98;;;13.30;99.90;;;13.44;100.00;100481.63;4931590;29;20057;-69
2023/12/25 04:18:52;;;;;;;38.38;9.32;;;13.20;99.90;;;13.48;100.00;100471.81;4899063;29;20080;-69
2023/12/25 04:21:25;;;;;;;37.35;7.47;;;13.30;99.90;;;13.51;100.00;100467.28;4898703;29;20060;-70
2023/12/25 04:23:55;;;;;;;29.90;8.25;;;13.30;99.90;;;13.57;100.00;100475.13;4929706;29;20477;-69
2023/12/25 04:26:26;;;;;;;35.30;7.65;;;13.30;99.90;;;13.58;100.00;100463.59;4900824;29;20124;-69
2023/12/25 04:28:55;;;;;;;26.65;7.35;;;13.30;99.90;;;13.56;100.00;100460.09;4931349;29;20048;-69
2023/12/25 04:31:24;;;;;;;28.85;6.78;;;13.30;99.90;;;13.67;100.00;100466.94;4915180;29;20055;-70
2023/12/25 04:33:52;;;;;;;34.50;6.93;;;13.40;99.90;;;13.55;100.00;100457.47;4900326;29;20505;-69
2023/12/25 04:36:21;;;;;;;20.10;6.50;;;13.40;99.90;;;13.51;100.00;100455.81;4914563;29;20045;-69
2023/12/25 04:38:49;;;;;;;18.58;5.28;;;13.30;99.90;;;13.64;100.00;100459.03;4898987;29;20048;-70
2023/12/25 04:41:21;;;;;;;14.10;5.40;;;13.40;99.90;;;13.47;100.00;100439.03;4900640;29;20053;-69
2023/12/25 04:43:52;;;;;;;11.75;4.60;;;13.30;99.90;;;13.49;100.00;100461.13;4930442;29;20084;-70
2023/12/25 04:46:21;;;;;;;10.70;4.37;;;13.30;99.90;;;13.61;100.00;100467.09;4899653;29;20062;-70
2023/12/25 04:48:50;;;;;;;9.73;4.05;;;13.30;99.90;;;13.64;100.00;100464.34;4898900;29;20048;-70
2023/12/25 04:51:18;;;;;;;11.90;3.97;;;13.40;99.90;;;13.64;100.00;100469.66;4898990;29;20052;-70
2023/12/25 04:53:47;;;;;;;8.25;3.58;;;13.40;99.90;;;13.70;100.00;100473.06;4899327;29;20499;-70
2023/12/25 04:56:16;;;;;;;7.32;4.05;;;13.50;99.90;;;13.72;100.00;100471.25;4900059;29;20487;-69
2023/12/25 04:58:45;;;;;;;7.72;4.15;;;13.50;99.90;;;13.69;100.00;100463.34;4931055;29;20048;-69
2023/12/25 05:01:14;;;;;;;9.32;3.75;;;13.50;99.90;;;13.66;100.00;100473.16;4900157;29;20119;-69
2023/12/25 05:03:43;;;;;;;6.90;3.30;;;13.50;99.90;;;13.53;100.00;100475.22;4900943;29;20047;-69
2023/12/25 05:06:11;;;;;;;6.18;3.60;;;13.40;99.90;;;13.64;100.00;100489.16;4898319;29;20604;-70
2023/12/25 05:08:40;;;;;;;7.45;3.63;;;13.40;99.90;;;13.57;100.00;100477.78;4900423;29;20053;-70
2023/12/25 05:11:08;;;;;;;10.23;4.10;;;13.40;99.90;;;13.56;100.00;100492.00;4900140;29;20048;-69
2023/12/25 05:13:37;;;;;;;6.85;3.45;;;13.40;99.90;;;13.51;100.00;100471.75;4914766;29;20052;-69
2023/12/25 05:16:06;;;;;;;5.20;3.47;;;13.30;99.90;;;13.45;100.00;100482.50;4900012;29;20502;-70
2023/12/25 05:18:36;;;;;;;6.72;3.83;;;13.20;99.90;;;13.54;100.00;100474.31;4900206;29;20095;-69
2023/12/25 05:21:08;;;;;;;9.10;3.88;;;13.30;99.90;;;13.53;100.00;100480.53;4899500;29;20089;-70
2023/12/25 05:23:37;;;;;;;8.70;3.92;;;13.20;99.90;;;13.52;100.00;100492.97;4899902;29;20502;-70
2023/12/25 05:26:05;;;;;;;9.52;4.05;;;13.30;99.90;;;13.60;100.00;100495.44;4900045;29;20056;-70
2023/12/25 05:28:33;;;;;;;11.77;4.72;;;13.30;99.90;;;13.54;100.00;100485.84;4899799;29;20790;-69
2023/12/25 05:31:02;;;;;;;17.55;4.90;;;13.30;99.90;;;13.39;100.00;100459.59;4899712;29;20068;-69
2023/12/25 05:33:30;;;;;;;10.93;4.53;;;13.20;99.90;;;13.40;100.00;100473.75;4899731;29;20044;-70
2023/12/25 05:36:00;;;;;;;17.40;5.05;;;13.20;99.90;;;13.48;100.00;100475.34;4899682;29;20048;-69
2023/12/25 05:38:28;;;;;;;13.75;5.03;;;13.20;99.90;;;13.42;100.00;100478.13;4930223;29;20044;-69
2023/12/25 05:41:00;;;;;;;13.73;4.78;;;13.20;99.90;;;13.40;100.00;100482.59;4899793;29;20053;-70
2023/12/25 05:43:29;;;;;;;18.88;5.68;;;13.20;99.90;;;13.42;100.00;100486.09;4899564;29;20056;-69
2023/12/25 05:45:57;;;;;;;18.45;5.53;;;13.20;99.90;;;13.50;100.00;100480.63;4930011;29;20048;-70
2023/12/25 05:48:25;;;;;;;17.38;5.20;;;13.20;99.90;;;13.47;100.00;100486.88;4899541;29;20060;-71
2023/12/25 05:50:54;;;;;;;13.70;4.82;;;13.30;99.90;;;13.48;100.00;100472.69;4899893;29;20131;-69
2023/12/25 05:53:25;;;;;;;19.85;4.72;;;13.20;99.90;;;13.48;100.00;100485.97;4899084;29;20055;-70
2023/12/25 05:55:54;;;;;;;19.00;4.90;;;13.20;99.90;;;13.53;100.00;100486.72;4897491;29;20051;-70
2023/12/25 05:58:22;;;;;;;14.63;4.47;;;13.30;99.90;;;13.59;100.00;100497.22;4898132;29;20041;-69
2023/12/25 06:00:51;;;;;;;9.73;4.05;;;13.30;99.90;;;13.52;100.00;100482.34;4898401;29;20419;-69
2023/12/25 06:03:19;;;;;;;16.10;5.35;;;13.30;99.90;;;13.46;100.00;100489.56;4899311;29;20137;-69
2023/12/25 06:05:47;;;;;;;10.65;4.22;;;13.30;99.90;;;13.58;100.00;100484.84;4898961;29;20554;-70
2023/12/25 06:08:16;;;;;;;11.07;4.70;;;13.30;99.90;;;13.55;100.00;100490.22;4913706;29;20057;-69
2023/12/25 06:10:45;;;;;;;11.82;4.10;;;13.30;99.90;;;13.64;100.00;100481.19;4913901;29;20068;-69
2023/12/25 06:13:14;;;;;;;9.05;4.10;;;13.40;99.90;;;13.66;100.00;100486.47;4898790;29;20048;-69
2023/12/25 06:15:42;;;;;;;11.60;4.45;;;13.40;99.90;;;13.64;100.00;100498.91;4898696;29;20384;-69
2023/12/25 06:18:11;;;;;;;12.52;4.63;;;13.30;99.90;;;13.65;100.00;100500.63;4898889;29;20049;-70
2023/12/25 06:20:39;;;;;;;9.40;3.83;;;13.40;99.90;;;13.72;100.00;100489.84;4897946;29;20127;-70
2023/12/25 06:23:07;;;;;;;11.65;4.47;;;13.40;99.90;;;13.71;100.00;100496.06;4899291;29;20048;-69
2023/12/25 06:25:36;;;;;;;8.10;3.83;;;13.40;99.90;;;13.62;100.00;100471.50;4898845;29;20076;-69
2023/12/25 06:28:06;;;;;;;8.07;3.70;;;13.50;99.90;;;13.73;100.00;100498.69;4898655;29;20058;-70
2023/12/25 06:30:35;;;;;;;;;;;13.50;99.90;;;13.74;100.00;100485.38;4899005;29;20052;-70
2023/12/25 06:33:04;;;;;;;11.32;4.32;;;13.50;99.90;;;13.68;100.00;100492.63;4896811;29;20439;-69
2023/12/25 06:35:33;;;;;;;8.25;4.13;;;13.50;99.90;;;13.75;100.00;100504.84;4897693;29;20045;-69
2023/12/25 06:38:02;;;;;;;11.50;4.03;;;13.50;99.90;;;13.71;100.00;100504.03;4898782;29;20044;-69
2023/12/25 06:40:30;;;;;;;12.10;4.35;;;13.50;99.90;;;13.77;100.00;100498.59;4898489;29;20044;-70
2023/12/25 06:42:58;;;;;;;7.90;4.75;;;13.50;99.90;;;13.66;100.00;100492.66;4898442;29;20466;-69
2023/12/25 06:45:30;;;;;;;8.98;4.20;;;13.50;99.90;;;13.49;100.00;100469.09;4898072;29;20053;-70
2023/12/25 06:47:59;;;;;;;8.80;3.90;;;13.40;99.90;;;13.66;100.00;100495.31;4897266;29;20052;-70
2023/12/25 06:50:28;;;;;;;9.82;3.78;;;13.50;99.90;;;13.64;100.00;100502.44;4898074;29;20052;-70
2023/12/25 06:52:57;;;;;;;7.63;4.72;;;13.50;99.90;;;13.64;100.00;100504.22;4898342;29;20380;-69
2023/12/25 06:55:26;;;;;;;14.70;4.85;;;13.40;99.90;;;13.66;100.00;100507.72;4928716;29;20139;-69
2023/12/25 06:57:54;;;;;;;10.95;4.38;;;13.40;99.90;;;13.75;100.00;100503.06;4898050;29;20064;-69
2023/12/25 07:00:23;;;;;;;13.05;4.35;;;13.40;99.90;;;13.59;100.00;100502.53;4898790;29;20067;-69
2023/12/25 07:02:53;;;;;;;15.32;4.70;;;13.40;99.90;;;13.61;100.00;100501.66;4897273;29;20112;-69
2023/12/25 07:05:22;;;;;;;9.73;4.40;;;13.40;99.90;;;13.59;100.00;100505.19;4898174;29;20049;-69
2023/12/25 07:07:51;;;;;;;12.05;4.60;;;13.30;99.90;;;13.58;100.00;100500.81;4898154;29;20498;-69
2023/12/25 07:10:20;;;;;;;14.05;4.70;;;13.30;99.90;;;13.60;100.00;100508.75;4898133;29;20043;-69
2023/12/25 07:12:48;;;;;;;8.25;4.20;;;13.40;99.90;;;13.69;100.00;100499.66;4897837;29;20095;-69
2023/12/25 07:15:18;;;;;;;16.70;4.95;;;13.40;99.90;;;13.71;100.00;100516.44;4897778;29;20135;-69
2023/12/25 07:17:46;;;;;;;12.47;4.37;;;13.40;99.90;;;13.71;100.00;100524.41;4897407;29;20084;-69
2023/12/25 07:20:16;;;;;;;13.90;4.40;;;13.40;99.90;;;13.60;100.00;100508.75;4897441;29;20052;-69
2023/12/25 07:22:45;;;;;;;16.15;4.25;;;13.40;99.90;;;13.72;100.00;100523.53;4898014;29;20044;-69
2023/12/25 07:25:16;;;;;;;14.07;4.43;;;13.40;99.90;;;13.68;100.00;100522.72;4898218;29;20060;-69
2023/12/25 07:27:44;;;;;;;15.20;4.38;;;13.40;99.90;;;13.53;100.00;100523.03;4897884;29;20059;-69
2023/12/25 07:30:14;;;;;;;11.35;4.35;;;13.30;99.90;;;13.62;100.00;100530.84;4897633;29;20132;-69
2023/12/25 07:32:42;;;;;;;16.53;4.97;;;13.30;99.90;;;13.49;100.00;100524.91;4898171;29;20052;-69
2023/12/25 07:35:11;;;;;;;15.15;4.53;;;13.20;99.90;;;13.55;100.00;100534.53;4897620;29;20041;-69
2023/12/25 07:37:41;;;;;;;19.90;5.20;;;13.30;99.90;;;13.60;100.00;100532.66;4897984;29;20048;-69
2023/12/25 07:40:11;;;;;;;12.80;4.65;;;13.30;99.90;;;13.57;100.00;100548.66;4897587;29;20041;-69
2023/12/25 07:42:39;;;;;;;14.43;4.45;;;13.30;99.90;;;13.56;100.00;100555.78;4897115;29;20410;-69
2023/12/25 07:45:10;;;;;;;18.17;4.95;;;13.30;99.90;;;13.69;100.00;100558.13;4898149;29;20044;-69
2023/12/25 07:47:38;;;;;;;14.65;4.53;;;13.40;99.90;;;13.73;100.00;100563.34;4897901;29;20096;-69
2023/12/25 07:50:08;;;;;;;14.00;4.90;;;13.40;99.90;;;13.73;100.00;100551.84;4897622;29;20526;-69
2023/12/25 07:52:37;;;;;;;11.38;4.28;;;13.40;99.90;;;13.72;100.00;100550.13;4897484;29;20070;-69
2023/12/25 07:55:07;;;;;;;15.20;4.03;;;13.40;99.90;;;13.71;100.00;100553.66;4912236;29;20061;-69
2023/12/25 07:57:36;;;;;;;14.65;4.97;;;13.40;99.90;;;13.74;100.00;100554.50;4897618;29;20462;-69
2023/12/25 08:00:07;;;;;;;11.55;4.25;;;13.40;99.90;;;13.79;100.00;100562.34;4897362;29;20057;-69
2023/12/25 08:02:38;;;;;;;14.25;4.90;;;13.50;99.90;;;13.67;100.00;100562.59;4897285;29;20053;-69
2023/12/25 08:05:07;;;;;;;16.25;5.18;;;13.40;99.90;;;13.62;100.00;100576.03;4897786;29;20049;-69
2023/12/25 08:07:36;;;;;;;12.77;4.50;;;13.40;99.90;;;13.66;100.00;100585.69;4897352;29;20037;-69
2023/12/25 08:10:06;;;;;;;16.17;6.05;;;13.40;99.90;;;13.57;100.00;100572.56;4897325;29;20497;-69
2023/12/25 08:12:34;;;;;;;12.90;4.22;;;13.30;99.90;;;13.52;100.00;100566.50;4897425;29;20052;-69
2023/12/25 08:15:03;;;;;;;12.57;4.22;;;13.30;99.90;;;13.59;100.00;100566.31;4897117;29;20131;-69
2023/12/25 08:17:31;;;;;;;9.90;3.90;;;13.30;99.90;;;13.58;100.00;100559.28;4897243;29;20060;-69
2023/12/25 08:20:00;;;;;;;13.32;4.35;;;13.30;99.90;;;13.53;100.00;100558.47;4897346;29;20036;-69
2023/12/25 08:22:28;;;;;;;9.85;4.25;;;13.30;99.90;;;13.54;100.00;100554.94;4897474;29;20061;-69
2023/12/25 08:24:57;;;;;;;8.95;3.63;;;13.20;99.90;;;13.51;100.00;100560.28;4911668;29;20459;-69
2023/12/25 08:27:26;;;;;;;9.82;4.07;;;13.20;99.90;;;13.54;100.00;100554.94;4897388;29;20076;-69
2023/12/25 08:29:56;;;;;;;8.40;4.35;;;13.30;99.90;;;13.48;100.00;100559.47;4897148;29;20055;-69
2023/12/25 08:32:24;;;;;;;12.23;4.53;;;13.20;99.90;;;13.45;100.00;100567.53;4897090;29;20051;-69
2023/12/25 08:34:52;;;;;;;13.43;5.10;;;13.20;99.90;;;13.42;100.00;100568.47;4897059;29;20053;-69
2023/12/25 08:37:21;;;;;;;10.60;4.22;;;13.10;99.90;;;13.31;100.00;100548.34;4897081;29;20088;-69
2023/12/25 08:39:49;;;;;;;11.02;3.90;;;13.10;99.90;;;13.30;100.00;100576.69;4897029;29;20050;-69
2023/12/25 08:42:17;;;;;;;15.98;4.38;;;13.10;99.90;;;13.29;100.00;100585.56;4897015;29;20507;-69
2023/12/25 08:44:48;;;;;;;13.23;4.55;;;13.10;99.90;;;13.29;100.00;100584.69;4897026;29;20064;-69
2023/12/25 08:47:16;;;;;;;13.80;4.53;;;13.00;99.90;;;13.35;100.00;100592.53;4897428;29;20517;-70
2023/12/25 08:49:44;;;;;;;15.15;4.72;;;13.00;99.90;;;13.33;100.00;100589.91;4897125;29;20045;-69
2023/12/25 08:52:13;;;;;;;11.40;4.25;;;13.10;99.90;;;13.44;100.00;100576.41;4897227;29;20131;-69
2023/12/25 08:54:41;;;;;;;8.55;4.10;;;13.10;99.90;;;13.45;100.00;100573.69;4897535;29;20044;-69
2023/12/25 08:57:10;;;;;;;15.85;4.25;;;13.20;99.90;;;13.50;100.00;100573.63;4900212;29;20048;-69
2023/12/25 08:59:38;;;;;;;13.25;4.60;;;13.20;99.90;;;13.36;100.00;100592.50;4914965;29;20399;-69
2023/12/25 09:02:08;;;;;;;14.55;5.38;;;13.10;99.90;;;13.35;100.00;100603.16;4900325;29;20040;-69
2023/12/25 09:04:36;;;;;;;10.37;4.57;;;13.10;99.90;;;13.36;100.00;100616.41;4900173;29;20044;-69
2023/12/25 09:07:05;;;;;;;13.80;4.78;;;13.10;99.90;;;13.31;100.00;100612.09;4900080;29;20047;-70
2023/12/25 09:09:33;;;;;;;16.35;4.28;;;13.10;99.90;;;13.27;100.00;100611.28;4899870;29;20490;-70
2023/12/25 09:12:01;;;;;;;12.00;5.05;;;13.00;99.90;;;13.27;100.00;100629.00;4899894;29;20048;-69
2023/12/25 09:14:30;;;;;;;13.93;4.63;;;13.00;99.90;;;13.35;100.00;100638.56;4914400;29;20045;-69
2023/12/25 09:16:59;;;;;;;13.10;4.30;;;13.00;99.90;;;13.42;100.00;100632.22;4930278;29;20064;-70
2023/12/25 09:19:29;;;;;;;13.57;4.30;;;13.10;99.90;;;13.40;100.00;100631.38;4900108;29;20052;-69
2023/12/25 09:21:58;;;;;;;13.27;4.47;;;13.10;99.90;;;13.26;100.00;100629.88;4899975;29;20096;-70
2023/12/25 09:24:27;;;;;;;12.73;4.43;;;13.00;99.90;;;13.20;100.00;100614.94;4930327;29;20108;-69
2023/12/25 09:26:55;;;;;;;10.65;4.45;;;13.00;99.90;;;13.31;100.00;100607.66;4899684;29;20503;-69
2023/12/25 09:29:24;;;;;;;15.82;4.50;;;13.00;99.90;;;13.20;100.00;100614.09;4899795;29;20044;-70
2023/12/25 09:31:52;;;;;;;16.70;4.57;;;12.90;99.90;;;13.27;100.00;100621.91;4899840;29;20092;-69
2023/12/25 09:34:20;;;;;;;10.52;4.18;;;13.00;99.90;;;13.31;100.00;100602.34;4899460;29;20063;-71
2023/12/25 09:36:51;;;;;;;10.90;4.63;;;13.00;99.90;;;13.36;100.00;100616.41;4914260;29;20418;-69
2023/12/25 09:39:19;;;;;;;12.63;4.10;;;13.10;99.90;;;13.33;100.00;100615.59;4900105;29;20045;-69
2023/12/25 09:41:48;;;;;;;12.25;4.40;;;13.00;99.90;;;13.23;100.00;100614.03;4899525;29;20048;-69
2023/12/25 09:44:17;;;;;;;9.25;4.30;;;13.00;99.90;;;13.38;100.00;100600.44;4899345;29;20487;-69
2023/12/25 09:46:46;;;;;;;11.82;4.43;;;13.00;99.90;;;13.39;99.74;100603.03;4899350;29;20052;-69
2023/12/25 09:49:15;;;;;;;11.73;4.55;;;13.10;99.90;;;13.35;99.29;100601.38;4898016;29;20053;-69
2023/12/25 09:51:45;;;;;;;9.30;3.80;;;13.10;99.90;;;13.36;98.92;100626.16;4899302;29;20055;-69
2023/12/25 09:54:15;;;;;;;6.60;3.95;;;13.10;99.90;;;13.36;98.93;100637.66;4899042;29;20040;-69
2023/12/25 09:56:44;;;;;;;9.57;4.40;;;13.10;99.90;;;13.36;98.94;100642.97;4929575;29;20471;-69
2023/12/25 09:59:14;;;;;;;13.73;5.18;;;13.10;99.90;;;13.41;99.07;100638.44;4899057;29;20104;-71
2023/12/25 10:01:42;;;;;;;10.75;4.10;;;13.10;99.90;;;13.33;99.49;100644.81;4899029;29;20045;-69
2023/12/25 10:04:11;;;;;;;8.07;3.80;;;13.10;99.90;;;13.44;99.64;100645.47;4899058;29;20513;-70
2023/12/25 10:06:39;;;;;;;13.75;4.85;;;13.20;99.90;;;13.34;99.41;100639.47;4898927;29;20068;-70